Time;durP1;ratioP1;P1;durP2;ratioP2;P2;SDS_P1;SDS_P2;PMS_P1;PMS_P2;Temp;Humidity;BMP_temperature;BMP_pressure;BME280_temperature;BME280_humidity;BME280_pressure;Samples;Min_cycle;Max_cycle;Signal;HPM_P1;HPM_P2
2021/11/01 00:01:11;;;;;;;5.83;4.23;;;14.20;99.90;;;;;;5033908;28;20453;-77
2021/11/01 00:03:38;;;;;;;10.00;4.47;;;14.20;99.90;;;;;;5033729;28;20467;-77
2021/11/01 00:06:07;;;;;;;12.67;4.57;;;14.40;99.90;;;;;;5033119;28;20487;-76
2021/11/01 00:08:36;;;;;;;5.70;4.17;;;14.40;99.90;;;;;;5033474;28;20477;-77
2021/11/01 00:11:03;;;;;;;6.20;3.97;;;14.40;99.90;;;;;;5033151;28;20433;-77
2021/11/01 00:13:31;;;;;;;9.13;4.40;;;14.40;99.90;;;;;;5033361;28;20964;-77
2021/11/01 00:15:59;;;;;;;6.70;3.87;;;14.50;99.90;;;;;;5033125;28;20444;-76
2021/11/01 00:18:26;;;;;;;7.10;4.30;;;14.40;99.90;;;;;;5032970;28;20928;-77
2021/11/01 00:20:53;;;;;;;12.90;4.53;;;14.40;99.90;;;;;;5033417;28;20457;-77
2021/11/01 00:23:20;;;;;;;7.30;4.67;;;14.50;99.90;;;;;;5033551;28;20428;-77
2021/11/01 00:25:47;;;;;;;7.73;5.37;;;14.50;99.90;;;;;;5038282;28;20481;-77
2021/11/01 00:28:14;;;;;;;9.03;5.20;;;14.60;99.90;;;;;;5045591;28;20968;-77
2021/11/01 00:30:41;;;;;;;7.70;4.83;;;14.60;99.90;;;;;;5045585;28;20444;-77
2021/11/01 00:33:10;;;;;;;7.20;4.57;;;14.50;99.90;;;;;;5035948;28;20836;-77
2021/11/01 00:35:37;;;;;;;8.20;4.50;;;14.50;99.90;;;;;;5035083;28;20528;-77
2021/11/01 00:38:04;;;;;;;5.80;3.80;;;14.50;99.90;;;;;;5035065;28;20468;-77
2021/11/01 00:40:31;;;;;;;5.93;3.73;;;14.50;99.90;;;;;;5034287;28;20488;-78
2021/11/01 00:43:00;;;;;;;5.80;3.40;;;14.60;99.90;;;;;;5033325;28;20428;-77
2021/11/01 00:45:27;;;;;;;6.00;3.20;;;14.70;99.90;;;;;;5032885;28;20573;-77
2021/11/01 00:47:53;;;;;;;5.20;3.10;;;14.90;99.90;;;;;;5033094;28;20460;-77
2021/11/01 00:50:22;;;;;;;5.27;2.43;;;14.90;99.90;;;;;;5033089;28;20819;-77
2021/11/01 00:52:49;;;;;;;5.17;3.33;;;15.00;99.90;;;;;;5035555;28;20438;-77
2021/11/01 00:55:22;;;;;;;4.80;2.50;;;15.10;99.90;;;;;;5036930;28;20888;-77
2021/11/01 00:57:50;;;;;;;4.50;2.47;;;15.20;99.90;;;;;;5037180;28;20421;-77
2021/11/01 01:00:18;;;;;;;3.70;2.20;;;15.30;99.90;;;;;;5038169;28;20433;-77
2021/11/01 01:02:46;;;;;;;5.00;2.60;;;15.40;99.90;;;;;;5037139;28;20926;-77
2021/11/01 01:05:13;;;;;;;5.73;2.40;;;15.50;99.90;;;;;;5036701;28;20577;-78
2021/11/01 01:07:41;;;;;;;4.40;2.30;;;15.60;99.90;;;;;;5036746;28;20471;-77
2021/11/01 01:10:09;;;;;;;5.20;1.60;;;15.60;99.90;;;;;;5036718;28;20427;-77
2021/11/01 01:12:41;;;;;;;3.30;1.70;;;15.70;99.90;;;;;;5036345;28;20431;-77
2021/11/01 01:15:10;;;;;;;3.30;1.53;;;15.70;99.90;;;;;;5036594;28;20516;-77
2021/11/01 01:17:38;;;;;;;4.03;1.70;;;15.80;99.90;;;;;;5036357;28;20428;-78
2021/11/01 01:20:08;;;;;;;4.23;1.50;;;15.90;99.90;;;;;;5036150;28;20435;-77
2021/11/01 01:22:35;;;;;;;3.60;1.50;;;16.00;99.90;;;;;;5037051;28;20443;-77
2021/11/01 01:27:51;;;;;;;6.57;1.50;;;16.10;99.90;;;;;;5035846;28;20518;-77
2021/11/01 01:30:18;;;;;;;3.37;1.50;;;16.20;99.90;;;;;;5036005;28;20439;-77
2021/11/01 01:32:45;;;;;;;3.30;1.20;;;16.20;99.90;;;;;;5036670;28;20448;-77
2021/11/01 01:35:14;;;;;;;3.10;1.50;;;16.30;99.90;;;;;;5035984;28;20489;-77
2021/11/01 01:37:41;;;;;;;4.07;1.47;;;16.30;99.90;;;;;;5036455;28;20523;-77
2021/11/01 01:40:11;;;;;;;5.10;1.30;;;16.30;99.90;;;;;;5036272;28;20460;-77
2021/11/01 01:42:40;;;;;;;3.27;1.20;;;16.30;99.90;;;;;;5036163;28;20524;-78
2021/11/01 01:45:10;;;;;;;4.90;1.27;;;16.30;99.90;;;;;;5035491;28;20478;-77
2021/11/01 01:47:36;;;;;;;3.30;1.40;;;16.40;99.90;;;;;;5037284;28;20515;-78
2021/11/01 01:50:05;;;;;;;3.47;1.57;;;16.50;99.90;;;;;;5036280;28;20453;-77
2021/11/01 01:52:32;;;;;;;3.70;1.13;;;16.60;99.90;;;;;;5035839;28;20553;-77
2021/11/01 01:54:59;;;;;;;2.80;1.07;;;16.70;99.90;;;;;;5035648;28;20492;-77
2021/11/01 01:57:27;;;;;;;3.90;1.80;;;16.70;99.90;;;;;;5036084;28;20451;-78
2021/11/01 01:59:54;;;;;;;5.47;1.93;;;16.60;99.90;;;;;;5037222;28;20491;-78
2021/11/01 02:02:21;;;;;;;4.33;2.20;;;16.20;99.90;;;;;;5038215;28;20846;-78
2021/11/01 02:04:50;;;;;;;3.97;2.30;;;16.20;99.90;;;;;;5035754;28;20513;-77
2021/11/01 02:07:28;;;;;;;3.80;2.50;;;16.20;99.90;;;;;;5035585;28;20442;-77
2021/11/01 02:10:01;;;;;;;4.13;2.00;;;15.90;99.90;;;;;;5035488;28;20453;-77
2021/11/01 02:12:35;;;;;;;4.17;1.40;;;15.80;99.90;;;;;;5035230;28;20907;-77
2021/11/01 02:15:08;;;;;;;3.10;1.03;;;15.60;99.90;;;;;;5035552;28;20489;-77
2021/11/01 02:17:36;;;;;;;4.00;1.00;;;15.60;99.90;;;;;;5035649;28;20504;-76
2021/11/01 02:20:06;;;;;;;4.37;1.10;;;15.30;99.90;;;;;;5035816;28;20424;-76
2021/11/01 02:22:41;;;;;;;4.73;1.20;;;15.20;99.90;;;;;;5036132;28;20424;-77
2021/11/01 02:25:10;;;;;;;3.30;0.70;;;15.00;99.90;;;;;;5034848;28;20469;-76
2021/11/01 02:27:41;;;;;;;3.60;0.90;;;15.00;99.90;;;;;;5034823;28;20508;-76
2021/11/01 02:30:10;;;;;;;4.53;0.90;;;14.90;99.90;;;;;;5035229;28;20466;-76
2021/11/01 02:32:41;;;;;;;4.23;1.10;;;14.70;99.90;;;;;;5035058;28;20804;-76
2021/11/01 02:35:09;;;;;;;3.20;0.90;;;14.80;99.90;;;;;;5034626;28;20495;-76
2021/11/01 02:37:38;;;;;;;6.73;1.37;;;14.70;99.90;;;;;;5034618;28;20946;-77
2021/11/01 02:40:07;;;;;;;3.90;1.00;;;14.50;99.90;;;;;;5034910;28;20462;-77
2021/11/01 02:42:34;;;;;;;8.93;1.33;;;14.30;99.90;;;;;;5034607;28;20456;-76
2021/11/01 02:45:05;;;;;;;3.37;0.90;;;14.20;99.90;;;;;;5034571;28;20513;-77
2021/11/01 02:47:32;;;;;;;4.43;0.80;;;14.40;99.90;;;;;;5035027;28;20513;-76
2021/11/01 02:50:01;;;;;;;4.97;1.17;;;14.30;99.90;;;;;;5034865;28;20449;-77
2021/11/01 02:52:29;;;;;;;3.13;0.80;;;14.20;99.90;;;;;;5035912;28;20797;-77
2021/11/01 02:54:57;;;;;;;3.30;0.70;;;14.20;99.90;;;;;;5035498;28;20468;-78
2021/11/01 02:57:24;;;;;;;4.10;0.80;;;14.10;99.90;;;;;;5034662;28;20430;-77
2021/11/01 02:59:51;;;;;;;3.90;0.80;;;14.10;99.90;;;;;;5034685;28;20445;-78
2021/11/01 03:02:20;;;;;;;3.30;1.10;;;14.10;99.90;;;;;;5034260;28;20450;-77
2021/11/01 03:04:47;;;;;;;5.90;0.80;;;14.10;99.90;;;;;;5034732;28;20943;-77
2021/11/01 03:07:14;;;;;;;3.17;0.80;;;14.20;99.90;;;;;;5035014;28;20894;-77
2021/11/01 03:09:45;;;;;;;6.20;1.10;;;14.10;99.90;;;;;;5034448;28;20784;-76
2021/11/01 03:12:14;;;;;;;3.43;1.10;;;14.10;99.90;;;;;;5034728;28;20458;-77
2021/11/01 03:14:49;;;;;;;3.40;0.90;;;14.10;99.90;;;;;;5033888;28;20480;-77
2021/11/01 03:17:19;;;;;;;5.53;1.00;;;14.10;99.90;;;;;;5034085;28;20439;-76
2021/11/01 03:19:50;;;;;;;3.37;0.80;;;14.00;99.90;;;;;;5034224;28;20512;-77
2021/11/01 03:22:18;;;;;;;2.77;0.80;;;14.10;99.90;;;;;;5034259;28;20521;-77
2021/11/01 03:24:50;;;;;;;2.73;0.90;;;14.10;99.90;;;;;;5034041;28;20481;-77
2021/11/01 03:27:20;;;;;;;3.37;0.73;;;14.10;99.90;;;;;;5034456;28;20440;-77
2021/11/01 03:29:48;;;;;;;4.40;0.90;;;14.00;99.90;;;;;;5035017;28;20934;-77
2021/11/01 03:32:15;;;;;;;3.27;0.97;;;13.80;99.90;;;;;;5034711;28;20822;-76
2021/11/01 03:34:44;;;;;;;3.97;1.40;;;13.80;99.90;;;;;;5034570;28;20969;-76
2021/11/01 03:37:15;;;;;;;3.77;0.90;;;13.80;99.90;;;;;;5033887;28;20518;-76
2021/11/01 03:39:43;;;;;;;2.63;0.60;;;13.60;99.90;;;;;;5033951;28;20418;-76
2021/11/01 03:42:11;;;;;;;4.43;1.07;;;13.70;99.90;;;;;;5033786;28;20489;-76
2021/11/01 03:44:44;;;;;;;5.83;0.90;;;13.40;99.90;;;;;;5033520;28;20460;-76
2021/11/01 03:47:12;;;;;;;5.97;1.37;;;13.10;99.90;;;;;;5033820;28;20416;-77
2021/11/01 03:49:49;;;;;;;3.00;0.77;;;13.10;99.90;;;;;;5033717;28;20479;-77
2021/11/01 03:52:22;;;;;;;6.50;1.00;;;13.20;99.90;;;;;;5034259;28;20438;-76
2021/11/01 03:54:52;;;;;;;3.53;0.90;;;13.30;99.90;;;;;;5033566;28;21001;-76
2021/11/01 03:57:20;;;;;;;3.60;0.90;;;13.40;99.90;;;;;;5034091;28;20487;-76
2021/11/01 03:59:47;;;;;;;4.03;1.10;;;13.40;99.90;;;;;;5033346;28;20432;-77
2021/11/01 04:02:16;;;;;;;5.87;1.37;;;13.20;99.90;;;;;;5033654;28;20445;-77
2021/11/01 04:04:46;;;;;;;6.00;1.13;;;13.00;99.90;;;;;;5033322;28;20518;-76
2021/11/01 04:07:13;;;;;;;4.23;1.40;;;13.00;99.90;;;;;;5033865;28;21031;-77
2021/11/01 04:09:41;;;;;;;4.07;1.30;;;12.90;99.90;;;;;;5033229;28;20449;-76
2021/11/01 04:12:10;;;;;;;5.47;1.20;;;12.90;99.90;;;;;;5033157;28;20889;-77
2021/11/01 04:14:40;;;;;;;4.13;1.23;;;12.90;99.90;;;;;;5033277;28;20451;-77
2021/11/01 04:17:12;;;;;;;3.73;0.90;;;12.90;99.90;;;;;;5033610;28;20520;-77
2021/11/01 04:19:54;;;;;;;5.63;1.40;;;13.00;99.90;;;;;;5033745;28;20474;-77
2021/11/01 04:22:20;;;;;;;3.93;0.93;;;12.90;99.90;;;;;;5033726;28;20420;-78
2021/11/01 04:24:49;;;;;;;4.83;1.23;;;12.90;99.90;;;;;;5032892;28;20447;-77
2021/11/01 04:27:16;;;;;;;5.10;1.30;;;12.80;99.90;;;;;;5032642;28;20511;-77
2021/11/01 04:29:42;;;;;;;4.10;1.20;;;12.80;99.90;;;;;;5033331;28;20427;-76
2021/11/01 04:32:19;;;;;;;4.93;1.30;;;12.80;99.90;;;;;;5033144;28;20461;-76
2021/11/01 04:34:49;;;;;;;5.80;1.50;;;12.80;99.90;;;;;;5032884;28;20987;-76
2021/11/01 04:37:17;;;;;;;4.57;1.47;;;12.80;99.90;;;;;;5033540;28;20470;-77
2021/11/01 04:39:56;;;;;;;3.63;0.90;;;12.80;99.90;;;;;;5034880;28;20790;-77
2021/11/01 04:53:32;;;;;;;4.63;1.20;;;12.70;99.90;;;;;;5059044;28;20402;-75
2021/11/01 04:55:59;;;;;;;3.70;0.97;;;12.70;99.90;;;;;;5055954;28;20466;-76
2021/11/01 04:58:28;;;;;;;5.00;1.33;;;12.80;99.90;;;;;;5051608;28;20831;-76
2021/11/01 05:00:54;;;;;;;5.67;1.17;;;12.80;99.90;;;;;;5051916;28;20453;-76
2021/11/01 05:03:32;;;;;;;4.20;1.10;;;12.70;99.90;;;;;;5051078;28;20920;-76
2021/11/01 05:05:59;;;;;;;5.90;1.27;;;12.70;99.90;;;;;;5051828;28;20512;-76
2021/11/01 05:08:32;;;;;;;4.90;1.30;;;12.90;99.90;;;;;;5051466;28;20423;-76
2021/11/01 05:11:09;;;;;;;4.43;0.93;;;13.10;99.90;;;;;;5051919;28;20797;-76
2021/11/01 05:13:38;;;;;;;4.80;1.40;;;13.00;99.90;;;;;;5051969;28;20475;-77
2021/11/01 05:16:09;;;;;;;3.90;1.20;;;12.90;99.90;;;;;;5051302;28;20488;-77
2021/11/01 05:18:42;;;;;;;4.77;1.57;;;12.80;99.90;;;;;;5051913;28;20850;-77
2021/11/01 05:21:24;;;;;;;3.20;0.97;;;12.80;99.90;;;;;;5051601;28;20403;-77
2021/11/01 05:23:55;;;;;;;3.40;1.10;;;12.70;99.90;;;;;;5051095;28;20970;-76
2021/11/01 05:26:29;;;;;;;4.87;1.10;;;12.70;99.90;;;;;;5052109;28;20511;-78
2021/11/01 05:29:01;;;;;;;3.47;1.00;;;12.70;99.90;;;;;;5052840;28;20439;-77
2021/11/01 05:31:29;;;;;;;5.80;1.30;;;12.70;99.90;;;;;;5052383;28;20440;-77
2021/11/01 05:34:01;;;;;;;4.70;1.57;;;12.70;99.90;;;;;;5052209;28;20423;-77
2021/11/01 05:36:29;;;;;;;4.63;1.37;;;12.70;99.90;;;;;;5052434;28;20895;-77
2021/11/01 05:38:56;;;;;;;6.77;1.50;;;12.80;99.90;;;;;;5055206;28;20434;-77
2021/11/01 05:41:23;;;;;;;7.40;1.47;;;12.80;99.90;;;;;;5056065;28;20460;-77
2021/11/01 05:43:50;;;;;;;9.27;2.07;;;12.80;99.90;;;;;;5055894;28;20455;-77
2021/11/01 05:46:19;;;;;;;5.70;1.60;;;12.80;99.90;;;;;;5055330;28;20921;-77
2021/11/01 05:48:50;;;;;;;3.27;1.30;;;12.80;99.90;;;;;;5056042;28;20427;-77
2021/11/01 05:51:19;;;;;;;6.10;1.90;;;12.80;99.90;;;;;;5055927;28;20408;-77
2021/11/01 05:53:50;;;;;;;4.17;1.50;;;12.80;99.90;;;;;;5055955;28;20452;-77
2021/11/01 05:56:29;;;;;;;8.27;1.93;;;12.80;99.90;;;;;;5055842;28;20461;-77
2021/11/01 05:59:31;;;;;;;6.80;1.70;;;12.80;99.90;;;;;;5055914;28;20822;-77
2021/11/01 06:04:54;;;;;;;7.30;1.97;;;12.70;99.90;;;;;;5054963;28;20783;-77
2021/11/01 06:07:26;;;;;;;4.03;1.70;;;12.70;99.90;;;;;;5055617;28;20414;-77
2021/11/01 06:10:02;;;;;;;3.67;1.40;;;12.70;99.90;;;;;;5055221;28;20429;-77
2021/11/01 06:15:14;;;;;;;6.10;1.70;;;12.60;99.90;;;;;;5054727;28;20958;-77
2021/11/01 06:17:43;;;;;;;7.83;1.97;;;12.60;99.90;;;;;;5054695;28;20477;-77
2021/11/01 06:20:12;;;;;;;4.03;1.60;;;12.60;99.90;;;;;;5054862;28;20427;-77
2021/11/01 06:22:39;;;;;;;6.00;1.77;;;12.50;99.90;;;;;;5054913;28;20467;-77
2021/11/01 06:25:08;;;;;;;5.33;1.40;;;12.50;99.90;;;;;;5054495;28;20551;-77
2021/11/01 06:27:36;;;;;;;4.77;1.90;;;12.50;99.90;;;;;;5054885;28;20482;-77
2021/11/01 06:30:11;;;;;;;5.00;1.90;;;12.60;99.90;;;;;;5054940;28;20543;-77
2021/11/01 06:32:42;;;;;;;3.10;1.07;;;12.60;99.90;;;;;;5054596;28;20967;-77
2021/11/01 06:43:54;;;;;;;5.10;1.40;;;12.60;99.90;;;;;;5014928;28;20416;-77
2021/11/01 06:52:15;;;;;;;3.00;0.80;;;12.60;99.90;;;;;;5054466;28;20401;-77
2021/11/01 06:54:59;;;;;;;8.67;1.27;;;12.50;99.90;;;;;;5054013;28;20421;-77
2021/11/01 06:57:36;;;;;;;3.37;0.70;;;12.50;99.90;;;;;;5053586;28;20443;-77
2021/11/01 07:14:15;;;;;;;3.83;0.93;;;12.50;99.90;;;;;;5053872;28;20466;-76
2021/11/01 07:16:45;;;;;;;2.20;0.53;;;12.50;99.90;;;;;;5054640;28;20491;-78
2021/11/01 07:19:19;;;;;;;2.40;0.70;;;12.50;99.90;;;;;;5054248;28;20460;-77
2021/11/01 08:26:09;;;;;;;4.40;1.50;;;12.30;99.90;;;;;;5051548;28;20440;-76
2021/11/01 08:28:51;;;;;;;7.80;1.40;;;12.30;99.90;;;;;;5053058;28;20452;-78
2021/11/01 08:37:08;;;;;;;3.33;1.20;;;12.30;99.90;;;;;;5056729;28;20488;-76
2021/11/01 08:42:44;;;;;;;2.70;0.90;;;12.30;99.90;;;;;;5052799;28;20404;-78
2021/11/01 09:07:53;;;;;;;3.40;1.00;;;12.10;99.90;;;;;;5053375;28;20935;-77
2021/11/01 09:10:47;;;;;;;4.47;1.10;;;12.20;99.90;;;;;;5057054;28;20440;-78
2021/11/01 09:13:42;;;;;;;4.03;1.37;;;12.20;99.90;;;;;;5056477;28;20477;-77
2021/11/01 09:19:12;;;;;;;4.60;1.00;;;12.30;99.90;;;;;;5057785;28;20399;-78
2021/11/01 09:21:53;;;;;;;5.57;1.00;;;12.30;99.90;;;;;;5057986;28;20444;-78
2021/11/01 09:24:37;;;;;;;3.20;0.90;;;12.30;99.90;;;;;;5058315;28;20438;-77
2021/11/01 09:27:07;;;;;;;4.10;1.50;;;12.30;99.90;;;;;;5058692;28;20443;-77
2021/11/01 09:29:50;;;;;;;3.00;0.97;;;12.40;99.90;;;;;;5058378;28;20567;-77
2021/11/01 09:40:58;;;;;;;2.83;1.17;;;12.40;99.90;;;;;;5054035;28;20570;-77
2021/11/01 09:43:25;;;;;;;3.40;0.70;;;12.50;99.90;;;;;;5057775;28;20480;-77
2021/11/01 09:45:55;;;;;;;4.03;0.90;;;12.50;99.90;;;;;;5057187;28;20469;-77
2021/11/01 09:48:22;;;;;;;2.80;1.03;;;12.60;99.90;;;;;;5058794;28;20504;-77
2021/11/01 09:50:51;;;;;;;2.50;0.90;;;12.60;99.90;;;;;;5060027;28;20798;-77
2021/11/01 09:53:22;;;;;;;3.27;1.50;;;12.70;99.90;;;;;;5057998;28;20453;-77
2021/11/01 09:55:55;;;;;;;4.37;1.50;;;12.70;99.90;;;;;;5056527;28;20439;-77
2021/11/01 10:01:10;;;;;;;2.67;1.00;;;12.80;99.90;;;;;;5056029;28;20511;-77
2021/11/01 10:03:40;;;;;;;4.03;1.57;;;12.80;99.90;;;;;;5056177;28;20445;-77
2021/11/01 10:06:08;;;;;;;3.73;1.27;;;12.90;99.90;;;;;;5056310;28;20895;-76
2021/11/01 10:08:38;;;;;;;3.40;1.20;;;12.80;99.90;;;;;;5055763;28;20529;-76
2021/11/01 10:11:16;;;;;;;3.90;2.00;;;12.70;99.90;;;;;;5056464;28;20475;-76
2021/11/01 10:13:43;;;;;;;3.80;1.73;;;12.70;99.90;;;;;;5056563;28;20443;-77
2021/11/01 10:18:54;;;;;;;3.63;1.40;;;12.80;99.90;;;;;;5055420;28;20511;-77
2021/11/01 10:21:21;;;;;;;3.43;1.40;;;12.70;99.90;;;;;;5055572;28;20517;-77
2021/11/01 10:23:52;;;;;;;3.40;1.40;;;12.70;99.90;;;;;;5055224;28;20477;-77
2021/11/01 10:26:20;;;;;;;3.60;1.50;;;12.80;99.90;;;;;;5055436;28;20450;-76
2021/11/01 10:28:48;;;;;;;3.70;1.13;;;12.90;99.90;;;;;;5061607;28;20532;-77
2021/11/01 10:31:21;;;;;;;4.70;1.00;;;12.80;99.90;;;;;;5057851;28;20448;-78
2021/11/01 10:33:49;;;;;;;3.00;1.13;;;12.80;99.90;;;;;;5055057;28;20448;-77
2021/11/01 10:36:26;;;;;;;4.20;1.03;;;12.80;99.90;;;;;;5055425;28;20476;-78
2021/11/01 10:39:00;;;;;;;3.67;1.23;;;12.70;99.90;;;;;;5056066;28;20523;-78
2021/11/01 10:41:32;;;;;;;4.20;1.20;;;12.80;99.90;;;;;;5055486;28;20465;-76
2021/11/01 10:44:18;;;;;;;3.17;1.03;;;12.80;99.90;;;;;;5055800;28;20494;-77
2021/11/01 10:47:15;;;;;;;5.37;1.67;;;12.80;99.90;;;;;;5071635;22;20691;-83
2021/11/01 11:12:03;;;;;;;5.40;1.30;;;12.90;99.90;;;;;;5044260;28;20903;-82
2021/11/01 11:14:35;;;;;;;4.93;1.17;;;12.90;99.90;;;;;;5043503;28;20460;-82
2021/11/01 11:20:00;;;;;;;3.07;1.00;;;12.80;99.90;;;;;;5045560;28;20448;-81
2021/11/01 11:40:06;;;;;;;4.50;1.43;;;13.10;99.90;;;;;;5051406;28;20501;-82
2021/11/01 11:48:11;;;;;;;3.80;1.23;;;13.20;99.90;;;;;;5044341;28;20533;-83
2021/11/01 11:50:38;;;;;;;3.63;1.37;;;13.20;99.90;;;;;;5044863;28;20448;-82
2021/11/01 11:53:13;;;;;;;5.87;1.50;;;13.20;99.90;;;;;;5041755;28;20407;-82
2021/11/01 11:55:40;;;;;;;3.20;1.43;;;13.20;99.90;;;;;;5042866;28;20443;-82
2021/11/01 11:58:10;;;;;;;3.40;1.40;;;13.20;99.90;;;;;;5042730;28;20579;-82
2021/11/01 12:00:39;;;;;;;5.83;1.80;;;13.20;99.90;;;;;;5046984;28;20840;-83
2021/11/01 12:03:14;;;;;;;4.30;2.30;;;13.20;99.90;;;;;;5042057;28;20514;-81
2021/11/01 12:05:45;;;;;;;3.67;1.30;;;13.10;99.90;;;;;;5042924;28;20442;-82
2021/11/01 12:08:21;;;;;;;4.10;1.70;;;13.10;99.90;;;;;;5043742;28;20431;-82
2021/11/01 12:14:03;;;;;;;4.43;1.10;;;13.20;99.90;;;;;;5042114;28;20389;-82
2021/11/01 12:19:19;;;;;;;3.57;1.20;;;13.20;99.90;;;;;;5044683;28;20421;-82
2021/11/01 12:21:48;;;;;;;3.57;1.50;;;13.20;99.90;;;;;;5051347;28;20441;-81
2021/11/01 12:24:21;;;;;;;3.17;1.20;;;13.20;99.90;;;;;;5051607;28;20484;-82
2021/11/01 12:26:49;;;;;;;2.80;1.23;;;13.20;99.90;;;;;;5051315;28;20457;-82
2021/11/01 12:29:16;;;;;;;3.30;1.50;;;13.20;99.90;;;;;;5053018;28;20445;-81
2021/11/01 12:31:44;;;;;;;3.00;1.50;;;13.20;99.90;;;;;;5046877;28;20458;-82
2021/11/01 12:34:16;;;;;;;3.30;1.20;;;13.10;99.90;;;;;;5038368;28;20511;-83
2021/11/01 12:36:52;;;;;;;4.53;1.10;;;13.10;99.90;;;;;;5039110;28;20469;-83
2021/11/01 12:39:23;;;;;;;4.70;1.40;;;13.20;99.90;;;;;;5039224;28;20479;-81
2021/11/01 12:42:12;;;;;;;4.20;1.50;;;13.20;99.90;;;;;;5039618;28;20433;-81
2021/11/01 12:58:27;;;;;;;3.30;1.27;;;13.30;99.90;;;;;;5047364;28;20461;-81
2021/11/01 13:00:54;;;;;;;3.33;1.50;;;13.10;99.90;;;;;;5045108;28;20525;-81
2021/11/01 13:03:23;;;;;;;3.60;1.33;;;13.10;99.90;;;;;;5047909;28;20457;-82
2021/11/01 13:05:54;;;;;;;3.47;1.53;;;13.10;99.90;;;;;;5045931;28;20497;-82
2021/11/01 13:08:27;;;;;;;7.40;1.50;;;13.10;99.90;;;;;;5047017;28;20613;-82
2021/11/01 13:10:57;;;;;;;3.60;1.57;;;13.10;99.90;;;;;;5046035;28;20436;-82
2021/11/01 13:13:45;;;;;;;7.80;1.93;;;13.00;99.90;;;;;;5045967;28;20529;-83
2021/11/01 13:19:13;;;;;;;4.37;1.67;;;13.00;99.90;;;;;;5042718;28;20578;-82
2021/11/01 13:21:49;;;;;;;7.13;2.50;;;13.00;99.90;;;;;;5044364;28;20553;-83
2021/11/01 13:24:17;;;;;;;3.67;1.67;;;13.00;99.90;;;;;;5053144;28;20486;-82
2021/11/01 13:27:12;;;;;;;4.07;1.80;;;13.10;99.90;;;;;;5049501;28;20487;-82
2021/11/01 13:38:13;;;;;;;5.87;2.27;;;13.10;99.90;;;;;;5042795;28;20448;-82
2021/11/01 13:40:43;;;;;;;3.70;1.57;;;13.20;99.90;;;;;;5044397;28;20522;-83
2021/11/01 13:43:25;;;;;;;4.03;1.87;;;13.20;99.90;;;;;;5047849;28;20445;-82
2021/11/01 13:45:58;;;;;;;4.13;1.90;;;13.20;99.90;;;;;;5046954;28;20484;-82
2021/11/01 13:48:28;;;;;;;5.33;2.70;;;13.20;99.90;;;;;;5047560;28;20400;-82
2021/11/01 13:51:11;;;;;;;4.40;2.30;;;13.20;99.90;;;;;;5042539;28;20420;-81
2021/11/01 13:54:01;;;;;;;5.20;2.30;;;13.30;99.90;;;;;;5042981;28;20460;-82
2021/11/01 13:56:36;;;;;;;6.00;2.10;;;13.40;99.90;;;;;;5051544;28;20555;-82
2021/11/01 13:59:26;;;;;;;5.40;2.30;;;13.30;99.90;;;;;;5049581;28;20500;-82
2021/11/01 14:02:29;;;;;;;3.83;1.53;;;13.30;99.90;;;;;;5046255;28;20442;-83
2021/11/01 14:13:22;;;;;;;4.40;1.80;;;13.30;99.90;;;;;;5047637;28;20499;-84
2021/11/01 14:18:51;;;;;;;6.00;2.37;;;13.40;99.90;;;;;;5043758;28;20443;-81
2021/11/01 14:27:40;;;;;;;4.40;1.90;;;13.30;99.90;;;;;;5031732;28;20442;-82
2021/11/01 14:35:56;;;;;;;6.20;2.00;;;13.30;99.90;;;;;;5045967;28;20440;-82
2021/11/01 15:15:10;;;;;;;4.37;2.13;;;13.30;99.90;;;;;;5052051;28;20422;-82
2021/11/01 15:20:38;;;;;;;4.47;1.60;;;13.40;99.90;;;;;;5044411;28;20441;-81
2021/11/01 15:26:05;;;;;;;7.20;2.13;;;13.30;99.90;;;;;;5042940;28;20440;-82
2021/11/01 15:34:41;;;;;;;6.20;2.13;;;13.40;99.90;;;;;;5048344;28;20392;-80
2021/11/01 15:40:21;;;;;;;7.43;2.60;;;13.40;99.90;;;;;;5044227;28;20393;-81
2021/11/01 16:18:52;;;;;;;4.93;2.87;;;12.80;99.90;;;;;;5044818;28;20425;-82
2021/11/01 16:21:20;;;;;;;5.70;3.30;;;12.90;99.90;;;;;;5045157;28;20473;-82
2021/11/01 16:23:47;;;;;;;11.07;4.33;;;13.00;99.90;;;;;;5044195;28;20459;-82
2021/11/01 16:26:22;;;;;;;5.00;3.13;;;13.00;99.90;;;;;;5044992;28;20444;-81
2021/11/01 16:28:53;;;;;;;5.80;3.30;;;12.90;99.90;;;;;;5044553;28;20429;-82
2021/11/01 16:31:28;;;;;;;7.43;3.80;;;12.90;99.90;;;;;;5048843;28;20393;-83
2021/11/01 16:34:00;;;;;;;8.80;4.07;;;12.90;99.90;;;;;;5045096;28;20796;-81
2021/11/01 16:37:00;;;;;;;5.77;3.27;;;12.90;99.90;;;;;;5046225;28;20503;-81
2021/11/01 16:39:30;;;;;;;7.43;3.80;;;13.00;99.90;;;;;;5044899;28;20995;-81
2021/11/01 16:41:58;;;;;;;6.73;3.47;;;13.00;99.90;;;;;;5044495;28;20432;-82
2021/11/01 16:44:27;;;;;;;5.73;3.50;;;13.00;99.90;;;;;;5044833;28;20432;-82
2021/11/01 16:46:54;;;;;;;6.07;3.57;;;13.00;99.90;;;;;;5070896;22;20570;-77
2021/11/01 16:49:22;;;;;;;6.23;3.77;;;13.00;99.90;;;;;;5053463;28;20465;-79
2021/11/01 16:51:52;;;;;;;5.70;3.40;;;13.00;99.90;;;;;;5054455;28;20458;-78
2021/11/01 16:54:22;;;;;;;8.40;3.80;;;13.00;99.90;;;;;;5053777;28;20919;-77
2021/11/01 16:57:00;;;;;;;6.90;4.03;;;13.10;99.90;;;;;;5053625;28;20515;-79
2021/11/01 16:59:34;;;;;;;8.83;5.10;;;13.00;99.90;;;;;;5052834;28;20451;-78
2021/11/01 17:02:16;;;;;;;9.13;5.07;;;13.00;99.90;;;;;;5054275;28;20428;-78
2021/11/01 17:04:47;;;;;;;8.70;3.93;;;12.90;99.90;;;;;;5053907;28;20437;-76
2021/11/01 17:07:25;;;;;;;5.27;3.57;;;12.90;99.90;;;;;;5052875;28;20515;-76
2021/11/01 17:26:24;;;;;;;7.27;3.60;;;12.90;99.90;;;;;;5048539;28;20443;-77
2021/11/01 17:29:10;;;;;;;7.20;3.73;;;12.80;99.90;;;;;;5054581;28;20549;-78
2021/11/01 17:34:56;;;;;;;11.30;5.67;;;12.60;99.90;;;;;;5056038;28;20421;-76
2021/11/01 17:37:30;;;;;;;11.47;5.23;;;12.50;99.90;;;;;;5056824;28;20963;-78
2021/11/01 18:41:18;;;;;;;7.40;4.50;;;11.60;99.90;;;;;;5033173;28;20447;-77
2021/11/01 18:52:11;;;;;;;8.90;6.07;;;11.90;99.90;;;;;;5041839;28;20582;-77
2021/11/01 18:54:41;;;;;;;11.43;6.43;;;11.90;99.90;;;;;;5057280;28;20470;-77
2021/11/01 18:57:09;;;;;;;9.23;6.07;;;11.90;99.90;;;;;;5055554;28;20852;-77
2021/11/01 18:59:38;;;;;;;9.67;5.63;;;11.90;99.90;;;;;;5055227;28;20491;-76
2021/11/01 19:02:41;;;;;;;8.00;5.10;;;11.90;99.90;;;;;;5057070;28;20431;-78
2021/11/01 19:05:13;;;;;;;6.67;5.00;;;11.90;99.90;;;;;;5055182;28;20950;-77
2021/11/01 19:07:47;;;;;;;9.00;5.60;;;11.70;99.90;;;;;;5054646;28;20990;-78
2021/11/01 20:03:41;;;;;;;5.93;3.37;;;10.60;99.90;;;;;;5056659;28;20419;-79
2021/11/01 20:06:20;;;;;;;6.13;3.53;;;10.60;99.90;;;;;;5058064;28;20436;-85
2021/11/01 20:14:40;;;;;;;6.90;4.03;;;10.70;99.90;;;;;;5046846;28;20431;-82
2021/11/01 21:24:36;;;;;;;4.77;2.50;;;9.90;99.90;;;;;;5070439;28;20461;-81
2021/11/01 21:27:07;;;;;;;10.07;2.77;;;9.90;99.90;;;;;;5069485;28;20519;-79
2021/11/01 21:29:36;;;;;;;6.00;3.20;;;9.90;99.90;;;;;;5069186;28;20497;-80
2021/11/01 21:32:06;;;;;;;7.37;3.00;;;9.70;99.90;;;;;;5069628;28;20477;-80
2021/11/01 21:34:35;;;;;;;4.70;2.50;;;9.70;99.90;;;;;;5066709;28;20415;-80
2021/11/01 21:37:03;;;;;;;4.10;2.23;;;9.70;99.90;;;;;;5065247;28;20457;-80
2021/11/01 21:39:30;;;;;;;4.83;2.30;;;9.70;99.90;;;;;;5063267;28;20486;-80
2021/11/01 21:41:58;;;;;;;6.90;2.53;;;9.70;99.90;;;;;;5066557;28;20479;-80
2021/11/01 21:44:26;;;;;;;5.17;2.47;;;9.80;99.90;;;;;;5064507;28;20239;-80
2021/11/01 21:46:52;;;;;;;7.03;2.80;;;9.80;99.90;;;;;;5061752;28;20503;-81
2021/11/01 21:49:21;;;;;;;5.93;3.23;;;9.80;99.90;;;;;;5061884;28;20530;-79
2021/11/01 21:51:48;;;;;;;4.70;2.37;;;9.80;99.90;;;;;;5062588;28;20534;-80
2021/11/01 21:54:26;;;;;;;6.10;2.70;;;9.70;99.90;;;;;;5062386;28;20490;-79
2021/11/01 21:56:57;;;;;;;4.50;2.33;;;9.70;99.90;;;;;;5064204;28;20495;-81
2021/11/01 21:59:43;;;;;;;5.60;2.60;;;9.80;99.90;;;;;;5063362;28;20837;-79
2021/11/01 22:18:46;;;;;;;5.25;2.58;;;9.40;99.90;;;;;;5061383;28;20485;-80
2021/11/01 22:21:17;;;;;;;6.87;2.80;;;9.30;99.90;;;;;;5061934;28;20632;-79
2021/11/01 22:23:48;;;;;;;4.63;2.53;;;9.30;99.90;;;;;;5062509;28;20418;-81
2021/11/01 22:26:26;;;;;;;6.73;2.73;;;9.20;99.90;;;;;;5061962;28;20480;-80
2021/11/01 22:34:24;;;;;;;6.80;2.65;;;9.30;99.90;;;;;;5062146;28;20410;-80
2021/11/01 22:39:45;;;;;;;4.90;2.60;;;9.30;99.90;;;;;;5062548;28;20223;-80
2021/11/01 22:42:27;;;;;;;6.93;2.70;;;9.30;99.90;;;;;;5072043;28;20430;-80
2021/11/01 22:45:12;;;;;;;7.88;2.80;;;9.30;99.90;;;;;;5071616;28;20438;-81
2021/11/01 22:56:15;;;;;;;4.53;3.00;;;9.10;99.90;;;;;;5041493;28;20467;-83
2021/11/01 22:58:42;;;;;;;5.97;2.77;;;9.10;99.90;;;;;;5041573;28;20240;-83
2021/11/01 23:01:18;;;;;;;5.28;3.00;;;9.10;99.90;;;;;;5041903;28;20497;-84
2021/11/01 23:03:51;;;;;;;7.30;2.90;;;9.20;99.90;;;;;;5041481;28;20200;-84
2021/11/01 23:06:44;;;;;;;4.30;3.03;;;9.30;99.90;;;;;;5041532;28;20512;-84
2021/11/01 23:31:33;;;;;;;4.37;2.60;;;9.60;99.90;;;;;;5040832;28;20513;-85
2021/11/01 23:34:02;;;;;;;9.37;2.53;;;9.70;99.90;;;;;;5041474;28;20444;-85